sensor_id;sensor_type;location;lat;lon;timestamp;P1;durP1;ratioP1;P2;durP2;ratioP2
43345;SDS011;28937;51.160;4.146;2023-03-17T00:00:18;2.17;;;1.00;;
43345;SDS011;28937;51.160;4.146;2023-03-17T00:02:45;3.17;;;1.02;;
43345;SDS011;28937;51.160;4.146;2023-03-17T00:05:15;2.10;;;1.23;;
43345;SDS011;28937;51.160;4.146;2023-03-17T00:07:47;3.38;;;1.20;;
43345;SDS011;28937;51.160;4.146;2023-03-17T00:10:18;3.83;;;1.60;;
43345;SDS011;28937;51.160;4.146;2023-03-17T00:12:47;4.70;;;1.60;;
43345;SDS011;28937;51.160;4.146;2023-03-17T00:15:17;2.22;;;1.20;;
43345;SDS011;28937;51.160;4.146;2023-03-17T00:17:45;2.17;;;1.27;;
43345;SDS011;28937;51.160;4.146;2023-03-17T00:20:15;2.83;;;0.88;;
43345;SDS011;28937;51.160;4.146;2023-03-17T00:22:46;2.35;;;1.40;;
43345;SDS011;28937;51.160;4.146;2023-03-17T00:25:17;3.95;;;1.15;;
43345;SDS011;28937;51.160;4.146;2023-03-17T00:27:45;2.47;;;1.30;;
43345;SDS011;28937;51.160;4.146;2023-03-17T00:30:10;1.90;;;1.20;;
43345;SDS011;28937;51.160;4.146;2023-03-17T00:32:36;2.08;;;1.35;;
43345;SDS011;28937;51.160;4.146;2023-03-17T00:35:04;2.15;;;1.02;;
43345;SDS011;28937;51.160;4.146;2023-03-17T00:37:39;2.78;;;1.20;;
43345;SDS011;28937;51.160;4.146;2023-03-17T00:40:08;3.10;;;1.40;;
43345;SDS011;28937;51.160;4.146;2023-03-17T00:42:39;3.03;;;1.35;;
43345;SDS011;28937;51.160;4.146;2023-03-17T00:45:05;2.15;;;1.27;;
43345;SDS011;28937;51.160;4.146;2023-03-17T00:47:31;2.05;;;1.20;;
43345;SDS011;28937;51.160;4.146;2023-03-17T00:49:57;1.67;;;0.98;;
43345;SDS011;28937;51.160;4.146;2023-03-17T00:52:23;2.80;;;1.30;;
43345;SDS011;28937;51.160;4.146;2023-03-17T00:54:50;1.80;;;1.10;;
43345;SDS011;28937;51.160;4.146;2023-03-17T00:57:16;2.15;;;1.08;;
43345;SDS011;28937;51.160;4.146;2023-03-17T00:59:42;2.53;;;1.27;;
43345;SDS011;28937;51.160;4.146;2023-03-17T01:02:11;2.80;;;1.00;;
43345;SDS011;28937;51.160;4.146;2023-03-17T01:04:37;3.17;;;1.30;;
43345;SDS011;28937;51.160;4.146;2023-03-17T01:07:02;2.08;;;1.13;;
43345;SDS011;28937;51.160;4.146;2023-03-17T01:09:28;3.58;;;1.40;;
43345;SDS011;28937;51.160;4.146;2023-03-17T01:11:54;2.08;;;1.05;;
43345;SDS011;28937;51.160;4.146;2023-03-17T01:14:20;3.13;;;1.45;;
43345;SDS011;28937;51.160;4.146;2023-03-17T01:16:47;1.70;;;1.20;;
43345;SDS011;28937;51.160;4.146;2023-03-17T01:19:12;1.75;;;1.10;;
43345;SDS011;28937;51.160;4.146;2023-03-17T01:21:38;2.70;;;1.33;;
43345;SDS011;28937;51.160;4.146;2023-03-17T01:24:05;1.52;;;1.00;;
43345;SDS011;28937;51.160;4.146;2023-03-17T01:26:31;3.78;;;1.40;;
43345;SDS011;28937;51.160;4.146;2023-03-17T01:28:56;3.83;;;1.45;;
43345;SDS011;28937;51.160;4.146;2023-03-17T01:31:22;4.70;;;1.42;;
43345;SDS011;28937;51.160;4.146;2023-03-17T01:33:50;3.45;;;1.30;;
43345;SDS011;28937;51.160;4.146;2023-03-17T01:36:16;3.22;;;1.38;;
43345;SDS011;28937;51.160;4.146;2023-03-17T01:38:42;2.25;;;1.20;;
43345;SDS011;28937;51.160;4.146;2023-03-17T01:41:08;1.92;;;1.10;;
43345;SDS011;28937;51.160;4.146;2023-03-17T01:43:34;2.72;;;1.08;;
43345;SDS011;28937;51.160;4.146;2023-03-17T01:54:10;1.88;;;1.30;;
43345;SDS011;28937;51.160;4.146;2023-03-17T01:56:39;2.03;;;1.20;;
43345;SDS011;28937;51.160;4.146;2023-03-17T01:59:07;2.58;;;1.02;;
43345;SDS011;28937;51.160;4.146;2023-03-17T02:01:36;2.72;;;1.02;;
43345;SDS011;28937;51.160;4.146;2023-03-17T02:04:05;3.25;;;0.90;;
43345;SDS011;28937;51.160;4.146;2023-03-17T02:06:32;3.08;;;1.23;;
43345;SDS011;28937;51.160;4.146;2023-03-17T02:08:59;2.15;;;1.20;;
43345;SDS011;28937;51.160;4.146;2023-03-17T02:11:25;3.85;;;1.20;;
43345;SDS011;28937;51.160;4.146;2023-03-17T02:13:52;2.13;;;1.20;;
43345;SDS011;28937;51.160;4.146;2023-03-17T02:16:19;2.58;;;1.42;;
43345;SDS011;28937;51.160;4.146;2023-03-17T02:18:45;3.47;;;1.40;;
43345;SDS011;28937;51.160;4.146;2023-03-17T02:24:04;1.80;;;1.10;;
43345;SDS011;28937;51.160;4.146;2023-03-17T02:26:33;4.03;;;0.85;;
43345;SDS011;28937;51.160;4.146;2023-03-17T02:29:00;3.28;;;0.73;;
43345;SDS011;28937;51.160;4.146;2023-03-17T02:31:26;2.45;;;1.45;;
43345;SDS011;28937;51.160;4.146;2023-03-17T02:33:52;2.53;;;1.10;;
43345;SDS011;28937;51.160;4.146;2023-03-17T02:36:18;2.33;;;1.05;;
43345;SDS011;28937;51.160;4.146;2023-03-17T02:38:45;2.15;;;1.13;;
43345;SDS011;28937;51.160;4.146;2023-03-17T02:41:11;2.63;;;1.05;;
43345;SDS011;28937;51.160;4.146;2023-03-17T02:43:37;2.97;;;0.75;;
43345;SDS011;28937;51.160;4.146;2023-03-17T02:46:02;3.22;;;1.20;;
43345;SDS011;28937;51.160;4.146;2023-03-17T02:48:29;3.55;;;1.30;;
43345;SDS011;28937;51.160;4.146;2023-03-17T02:50:56;1.95;;;1.00;;
43345;SDS011;28937;51.160;4.146;2023-03-17T02:53:21;4.32;;;1.27;;
43345;SDS011;28937;51.160;4.146;2023-03-17T02:55:47;4.28;;;1.10;;
43345;SDS011;28937;51.160;4.146;2023-03-17T02:58:13;2.78;;;1.20;;
43345;SDS011;28937;51.160;4.146;2023-03-17T03:00:38;2.22;;;1.13;;
43345;SDS011;28937;51.160;4.146;2023-03-17T03:03:04;1.75;;;1.05;;
43345;SDS011;28937;51.160;4.146;2023-03-17T03:05:30;2.42;;;0.85;;
43345;SDS011;28937;51.160;4.146;2023-03-17T03:07:57;1.83;;;1.05;;
43345;SDS011;28937;51.160;4.146;2023-03-17T03:10:23;1.40;;;0.95;;
43345;SDS011;28937;51.160;4.146;2023-03-17T03:12:48;2.75;;;1.27;;
43345;SDS011;28937;51.160;4.146;2023-03-17T03:15:14;1.80;;;0.90;;
43345;SDS011;28937;51.160;4.146;2023-03-17T03:17:40;3.45;;;1.20;;
43345;SDS011;28937;51.160;4.146;2023-03-17T03:20:06;1.80;;;1.08;;
43345;SDS011;28937;51.160;4.146;2023-03-17T03:22:34;2.97;;;1.27;;
43345;SDS011;28937;51.160;4.146;2023-03-17T03:25:00;1.75;;;1.05;;
43345;SDS011;28937;51.160;4.146;2023-03-17T03:27:25;2.58;;;1.08;;
43345;SDS011;28937;51.160;4.146;2023-03-17T03:29:51;2.83;;;1.35;;
43345;SDS011;28937;51.160;4.146;2023-03-17T03:32:16;1.55;;;1.05;;
43345;SDS011;28937;51.160;4.146;2023-03-17T03:34:42;1.67;;;0.80;;
43345;SDS011;28937;51.160;4.146;2023-03-17T03:37:08;1.17;;;0.77;;
43345;SDS011;28937;51.160;4.146;2023-03-17T03:39:33;2.45;;;1.55;;
43345;SDS011;28937;51.160;4.146;2023-03-17T03:41:59;1.88;;;0.95;;
43345;SDS011;28937;51.160;4.146;2023-03-17T03:44:24;2.13;;;1.27;;
43345;SDS011;28937;51.160;4.146;2023-03-17T03:46:50;1.95;;;0.80;;
43345;SDS011;28937;51.160;4.146;2023-03-17T03:49:15;2.25;;;1.10;;
43345;SDS011;28937;51.160;4.146;2023-03-17T03:51:41;2.60;;;1.05;;
43345;SDS011;28937;51.160;4.146;2023-03-17T03:54:07;1.42;;;1.00;;
43345;SDS011;28937;51.160;4.146;2023-03-17T03:56:32;2.10;;;1.23;;
43345;SDS011;28937;51.160;4.146;2023-03-17T03:58:58;5.00;;;1.50;;
43345;SDS011;28937;51.160;4.146;2023-03-17T04:01:23;2.03;;;1.10;;
43345;SDS011;28937;51.160;4.146;2023-03-17T04:03:49;1.73;;;1.05;;
43345;SDS011;28937;51.160;4.146;2023-03-17T04:06:15;3.08;;;1.60;;
43345;SDS011;28937;51.160;4.146;2023-03-17T04:08:41;2.03;;;1.33;;
43345;SDS011;28937;51.160;4.146;2023-03-17T04:11:06;3.28;;;1.23;;
43345;SDS011;28937;51.160;4.146;2023-03-17T04:13:32;2.42;;;1.20;;
43345;SDS011;28937;51.160;4.146;2023-03-17T04:15:58;2.35;;;1.52;;
43345;SDS011;28937;51.160;4.146;2023-03-17T04:18:25;3.50;;;1.27;;
43345;SDS011;28937;51.160;4.146;2023-03-17T04:20:51;1.88;;;1.23;;
43345;SDS011;28937;51.160;4.146;2023-03-17T04:23:16;2.28;;;1.20;;
43345;SDS011;28937;51.160;4.146;2023-03-17T04:25:42;2.15;;;1.23;;
43345;SDS011;28937;51.160;4.146;2023-03-17T04:28:08;2.97;;;1.50;;
43345;SDS011;28937;51.160;4.146;2023-03-17T04:30:34;3.15;;;1.58;;
43345;SDS011;28937;51.160;4.146;2023-03-17T04:33:00;3.40;;;1.42;;
43345;SDS011;28937;51.160;4.146;2023-03-17T04:35:26;2.00;;;1.45;;
43345;SDS011;28937;51.160;4.146;2023-03-17T04:37:51;1.75;;;1.08;;
43345;SDS011;28937;51.160;4.146;2023-03-17T04:40:17;2.35;;;1.38;;
43345;SDS011;28937;51.160;4.146;2023-03-17T04:42:43;2.28;;;0.98;;
43345;SDS011;28937;51.160;4.146;2023-03-17T04:45:10;3.75;;;1.42;;
43345;SDS011;28937;51.160;4.146;2023-03-17T04:47:36;2.88;;;1.33;;
43345;SDS011;28937;51.160;4.146;2023-03-17T04:50:03;3.78;;;1.25;;
43345;SDS011;28937;51.160;4.146;2023-03-17T04:52:29;2.28;;;1.00;;
43345;SDS011;28937;51.160;4.146;2023-03-17T04:54:55;2.50;;;1.40;;
43345;SDS011;28937;51.160;4.146;2023-03-17T04:57:21;3.15;;;1.85;;
43345;SDS011;28937;51.160;4.146;2023-03-17T04:59:48;3.08;;;1.98;;
43345;SDS011;28937;51.160;4.146;2023-03-17T05:02:13;3.70;;;1.35;;
43345;SDS011;28937;51.160;4.146;2023-03-17T05:04:39;2.33;;;1.45;;
43345;SDS011;28937;51.160;4.146;2023-03-17T05:07:04;2.60;;;1.33;;
43345;SDS011;28937;51.160;4.146;2023-03-17T05:09:30;3.10;;;1.20;;
43345;SDS011;28937;51.160;4.146;2023-03-17T05:11:56;3.15;;;1.60;;
43345;SDS011;28937;51.160;4.146;2023-03-17T05:14:22;2.47;;;1.45;;
43345;SDS011;28937;51.160;4.146;2023-03-17T05:16:47;1.85;;;1.50;;
43345;SDS011;28937;51.160;4.146;2023-03-17T05:19:13;4.80;;;1.90;;
43345;SDS011;28937;51.160;4.146;2023-03-17T05:21:40;2.95;;;1.90;;
43345;SDS011;28937;51.160;4.146;2023-03-17T05:24:06;3.90;;;2.20;;
43345;SDS011;28937;51.160;4.146;2023-03-17T05:26:33;6.25;;;1.95;;
43345;SDS011;28937;51.160;4.146;2023-03-17T05:28:59;2.90;;;1.77;;
43345;SDS011;28937;51.160;4.146;2023-03-17T05:31:24;2.67;;;1.55;;
43345;SDS011;28937;51.160;4.146;2023-03-17T05:33:50;4.55;;;2.08;;
43345;SDS011;28937;51.160;4.146;2023-03-17T05:36:16;3.97;;;1.95;;
43345;SDS011;28937;51.160;4.146;2023-03-17T05:38:42;2.90;;;1.88;;
43345;SDS011;28937;51.160;4.146;2023-03-17T05:41:08;2.70;;;1.60;;
43345;SDS011;28937;51.160;4.146;2023-03-17T05:43:34;4.93;;;1.60;;
43345;SDS011;28937;51.160;4.146;2023-03-17T05:46:00;5.45;;;1.80;;
43345;SDS011;28937;51.160;4.146;2023-03-17T05:48:26;4.28;;;1.85;;
43345;SDS011;28937;51.160;4.146;2023-03-17T05:50:51;4.15;;;2.28;;
43345;SDS011;28937;51.160;4.146;2023-03-17T05:53:17;3.42;;;2.05;;
43345;SDS011;28937;51.160;4.146;2023-03-17T05:55:43;3.10;;;1.73;;
43345;SDS011;28937;51.160;4.146;2023-03-17T05:58:08;6.03;;;2.10;;
43345;SDS011;28937;51.160;4.146;2023-03-17T06:00:35;4.82;;;1.73;;
43345;SDS011;28937;51.160;4.146;2023-03-17T06:03:01;2.90;;;1.38;;
43345;SDS011;28937;51.160;4.146;2023-03-17T06:05:27;3.45;;;1.70;;
43345;SDS011;28937;51.160;4.146;2023-03-17T06:07:53;4.97;;;1.13;;
43345;SDS011;28937;51.160;4.146;2023-03-17T06:10:19;11.90;;;2.90;;
43345;SDS011;28937;51.160;4.146;2023-03-17T06:12:45;9.93;;;2.13;;
43345;SDS011;28937;51.160;4.146;2023-03-17T06:15:11;5.05;;;2.10;;
43345;SDS011;28937;51.160;4.146;2023-03-17T06:17:36;4.97;;;2.33;;
43345;SDS011;28937;51.160;4.146;2023-03-17T06:20:03;6.75;;;2.60;;
43345;SDS011;28937;51.160;4.146;2023-03-17T06:22:29;9.65;;;2.38;;
43345;SDS011;28937;51.160;4.146;2023-03-17T06:24:55;6.38;;;2.03;;
43345;SDS011;28937;51.160;4.146;2023-03-17T06:27:21;3.45;;;1.90;;
43345;SDS011;28937;51.160;4.146;2023-03-17T06:29:46;5.63;;;2.00;;
43345;SDS011;28937;51.160;4.146;2023-03-17T06:32:12;5.88;;;2.20;;
43345;SDS011;28937;51.160;4.146;2023-03-17T06:34:39;6.47;;;1.95;;
43345;SDS011;28937;51.160;4.146;2023-03-17T06:37:06;5.93;;;1.90;;
43345;SDS011;28937;51.160;4.146;2023-03-17T06:39:33;6.70;;;1.70;;
43345;SDS011;28937;51.160;4.146;2023-03-17T06:41:58;5.45;;;2.15;;
43345;SDS011;28937;51.160;4.146;2023-03-17T06:44:24;7.50;;;2.25;;
43345;SDS011;28937;51.160;4.146;2023-03-17T06:46:49;8.93;;;2.30;;
43345;SDS011;28937;51.160;4.146;2023-03-17T06:49:15;7.50;;;2.15;;
43345;SDS011;28937;51.160;4.146;2023-03-17T06:51:41;7.28;;;2.15;;
43345;SDS011;28937;51.160;4.146;2023-03-17T06:54:06;4.78;;;2.35;;
43345;SDS011;28937;51.160;4.146;2023-03-17T06:56:32;7.13;;;2.55;;
43345;SDS011;28937;51.160;4.146;2023-03-17T06:58:58;5.95;;;2.40;;
43345;SDS011;28937;51.160;4.146;2023-03-17T07:01:24;4.45;;;1.67;;
43345;SDS011;28937;51.160;4.146;2023-03-17T07:03:51;5.82;;;1.75;;
43345;SDS011;28937;51.160;4.146;2023-03-17T07:06:16;3.20;;;1.70;;
43345;SDS011;28937;51.160;4.146;2023-03-17T07:08:42;6.22;;;2.10;;
43345;SDS011;28937;51.160;4.146;2023-03-17T07:11:08;5.35;;;2.38;;
43345;SDS011;28937;51.160;4.146;2023-03-17T07:13:33;7.85;;;2.45;;
43345;SDS011;28937;51.160;4.146;2023-03-17T07:16:01;7.68;;;2.40;;
43345;SDS011;28937;51.160;4.146;2023-03-17T07:18:28;6.22;;;2.50;;
43345;SDS011;28937;51.160;4.146;2023-03-17T07:20:58;5.32;;;1.98;;
43345;SDS011;28937;51.160;4.146;2023-03-17T07:23:26;4.45;;;2.15;;
43345;SDS011;28937;51.160;4.146;2023-03-17T07:25:53;4.20;;;2.30;;
43345;SDS011;28937;51.160;4.146;2023-03-17T07:28:18;5.57;;;2.40;;
43345;SDS011;28937;51.160;4.146;2023-03-17T07:30:46;7.22;;;3.40;;
43345;SDS011;28937;51.160;4.146;2023-03-17T07:33:13;7.93;;;3.38;;
43345;SDS011;28937;51.160;4.146;2023-03-17T07:35:41;7.63;;;2.65;;
43345;SDS011;28937;51.160;4.146;2023-03-17T07:38:08;12.25;;;3.17;;
43345;SDS011;28937;51.160;4.146;2023-03-17T07:40:34;4.07;;;1.98;;
43345;SDS011;28937;51.160;4.146;2023-03-17T07:43:00;5.45;;;2.13;;
43345;SDS011;28937;51.160;4.146;2023-03-17T07:45:26;9.55;;;2.10;;
43345;SDS011;28937;51.160;4.146;2023-03-17T07:47:51;7.90;;;2.47;;
43345;SDS011;28937;51.160;4.146;2023-03-17T07:50:18;6.65;;;2.42;;
43345;SDS011;28937;51.160;4.146;2023-03-17T07:52:44;5.05;;;2.00;;
43345;SDS011;28937;51.160;4.146;2023-03-17T07:55:10;6.07;;;2.72;;
43345;SDS011;28937;51.160;4.146;2023-03-17T07:57:36;13.63;;;3.47;;
43345;SDS011;28937;51.160;4.146;2023-03-17T08:00:03;7.72;;;3.30;;
43345;SDS011;28937;51.160;4.146;2023-03-17T08:02:33;5.95;;;2.70;;
43345;SDS011;28937;51.160;4.146;2023-03-17T08:05:00;6.38;;;2.53;;
43345;SDS011;28937;51.160;4.146;2023-03-17T08:07:27;4.30;;;2.80;;
43345;SDS011;28937;51.160;4.146;2023-03-17T08:09:52;5.32;;;2.75;;
43345;SDS011;28937;51.160;4.146;2023-03-17T08:12:18;5.13;;;2.60;;
43345;SDS011;28937;51.160;4.146;2023-03-17T08:14:44;6.28;;;2.00;;
43345;SDS011;28937;51.160;4.146;2023-03-17T08:17:10;8.07;;;3.00;;
43345;SDS011;28937;51.160;4.146;2023-03-17T08:19:36;6.28;;;2.35;;
43345;SDS011;28937;51.160;4.146;2023-03-17T08:22:01;5.00;;;2.25;;
43345;SDS011;28937;51.160;4.146;2023-03-17T08:24:27;3.70;;;2.03;;
43345;SDS011;28937;51.160;4.146;2023-03-17T08:26:53;4.13;;;1.58;;
43345;SDS011;28937;51.160;4.146;2023-03-17T08:29:18;6.05;;;2.10;;
43345;SDS011;28937;51.160;4.146;2023-03-17T08:31:44;5.97;;;1.77;;
43345;SDS011;28937;51.160;4.146;2023-03-17T08:34:10;4.68;;;1.70;;
43345;SDS011;28937;51.160;4.146;2023-03-17T08:36:36;4.20;;;1.63;;
43345;SDS011;28937;51.160;4.146;2023-03-17T08:39:02;3.80;;;1.52;;
43345;SDS011;28937;51.160;4.146;2023-03-17T08:41:29;5.25;;;1.63;;
43345;SDS011;28937;51.160;4.146;2023-03-17T08:43:55;6.28;;;2.10;;
43345;SDS011;28937;51.160;4.146;2023-03-17T08:46:26;3.67;;;1.88;;
43345;SDS011;28937;51.160;4.146;2023-03-17T08:48:54;8.52;;;2.22;;
43345;SDS011;28937;51.160;4.146;2023-03-17T08:51:21;3.95;;;1.40;;
43345;SDS011;28937;51.160;4.146;2023-03-17T08:53:49;3.90;;;1.42;;
43345;SDS011;28937;51.160;4.146;2023-03-17T08:56:15;3.60;;;1.23;;
43345;SDS011;28937;51.160;4.146;2023-03-17T08:58:41;2.63;;;1.35;;
43345;SDS011;28937;51.160;4.146;2023-03-17T09:01:07;5.57;;;1.33;;
43345;SDS011;28937;51.160;4.146;2023-03-17T09:03:34;2.55;;;1.10;;
43345;SDS011;28937;51.160;4.146;2023-03-17T09:06:00;4.40;;;1.92;;
43345;SDS011;28937;51.160;4.146;2023-03-17T09:08:29;3.60;;;1.50;;
43345;SDS011;28937;51.160;4.146;2023-03-17T09:10:55;3.40;;;2.00;;
43345;SDS011;28937;51.160;4.146;2023-03-17T09:13:21;3.97;;;2.03;;
43345;SDS011;28937;51.160;4.146;2023-03-17T09:15:47;6.00;;;1.95;;
43345;SDS011;28937;51.160;4.146;2023-03-17T09:18:14;3.47;;;1.58;;
43345;SDS011;28937;51.160;4.146;2023-03-17T09:20:40;3.22;;;1.30;;
43345;SDS011;28937;51.160;4.146;2023-03-17T09:23:07;4.00;;;1.42;;
43345;SDS011;28937;51.160;4.146;2023-03-17T09:25:34;5.32;;;1.63;;
43345;SDS011;28937;51.160;4.146;2023-03-17T09:28:01;5.82;;;1.73;;
43345;SDS011;28937;51.160;4.146;2023-03-17T09:30:27;4.55;;;1.80;;
43345;SDS011;28937;51.160;4.146;2023-03-17T09:32:53;5.57;;;1.92;;
43345;SDS011;28937;51.160;4.146;2023-03-17T09:35:19;4.25;;;1.50;;
43345;SDS011;28937;51.160;4.146;2023-03-17T09:37:46;2.95;;;1.42;;
43345;SDS011;28937;51.160;4.146;2023-03-17T09:40:13;6.10;;;1.58;;
43345;SDS011;28937;51.160;4.146;2023-03-17T09:45:29;5.25;;;1.77;;
43345;SDS011;28937;51.160;4.146;2023-03-17T09:53:53;5.43;;;1.80;;
43345;SDS011;28937;51.160;4.146;2023-03-17T09:56:24;4.70;;;2.15;;
43345;SDS011;28937;51.160;4.146;2023-03-17T09:58:54;5.18;;;1.95;;
43345;SDS011;28937;51.160;4.146;2023-03-17T10:01:22;4.97;;;2.40;;
43345;SDS011;28937;51.160;4.146;2023-03-17T10:03:48;4.10;;;2.13;;
43345;SDS011;28937;51.160;4.146;2023-03-17T10:09:32;4.00;;;1.73;;
43345;SDS011;28937;51.160;4.146;2023-03-17T10:12:15;3.33;;;1.63;;
43345;SDS011;28937;51.160;4.146;2023-03-17T10:14:57;3.28;;;1.50;;
43345;SDS011;28937;51.160;4.146;2023-03-17T10:17:30;4.13;;;1.70;;
43345;SDS011;28937;51.160;4.146;2023-03-17T10:25:12;4.35;;;1.90;;
43345;SDS011;28937;51.160;4.146;2023-03-17T10:27:50;3.63;;;1.52;;
43345;SDS011;28937;51.160;4.146;2023-03-17T10:30:29;4.03;;;1.80;;
43345;SDS011;28937;51.160;4.146;2023-03-17T10:32:57;7.10;;;2.53;;
43345;SDS011;28937;51.160;4.146;2023-03-17T10:35:25;5.20;;;2.00;;
43345;SDS011;28937;51.160;4.146;2023-03-17T10:37:50;6.25;;;1.65;;
43345;SDS011;28937;51.160;4.146;2023-03-17T10:40:20;3.03;;;1.58;;
43345;SDS011;28937;51.160;4.146;2023-03-17T10:42:52;3.58;;;1.33;;
43345;SDS011;28937;51.160;4.146;2023-03-17T10:45:28;5.15;;;1.85;;
43345;SDS011;28937;51.160;4.146;2023-03-17T10:47:56;3.13;;;1.95;;
43345;SDS011;28937;51.160;4.146;2023-03-17T10:50:27;3.30;;;2.10;;
43345;SDS011;28937;51.160;4.146;2023-03-17T10:53:00;4.88;;;2.38;;
43345;SDS011;28937;51.160;4.146;2023-03-17T10:55:47;5.43;;;2.28;;
43345;SDS011;28937;51.160;4.146;2023-03-17T10:58:20;8.88;;;2.00;;
43345;SDS011;28937;51.160;4.146;2023-03-17T11:01:02;4.30;;;1.63;;
43345;SDS011;28937;51.160;4.146;2023-03-17T11:03:39;7.15;;;2.33;;
43345;SDS011;28937;51.160;4.146;2023-03-17T11:06:07;4.05;;;2.10;;
43345;SDS011;28937;51.160;4.146;2023-03-17T11:08:39;4.35;;;1.80;;
43345;SDS011;28937;51.160;4.146;2023-03-17T11:13:59;3.60;;;1.90;;
43345;SDS011;28937;51.160;4.146;2023-03-17T11:16:29;5.20;;;2.35;;
43345;SDS011;28937;51.160;4.146;2023-03-17T11:18:58;6.00;;;1.80;;
43345;SDS011;28937;51.160;4.146;2023-03-17T11:21:28;6.38;;;2.40;;
43345;SDS011;28937;51.160;4.146;2023-03-17T11:24:08;6.28;;;1.92;;
43345;SDS011;28937;51.160;4.146;2023-03-17T11:26:41;6.03;;;2.05;;
43345;SDS011;28937;51.160;4.146;2023-03-17T11:32:21;2.42;;;1.73;;
43345;SDS011;28937;51.160;4.146;2023-03-17T11:37:37;6.55;;;2.30;;
43345;SDS011;28937;51.160;4.146;2023-03-17T11:51:22;2.88;;;1.60;;
43345;SDS011;28937;51.160;4.146;2023-03-17T11:56:44;6.63;;;2.53;;
43345;SDS011;28937;51.160;4.146;2023-03-17T12:02:00;5.05;;;1.70;;
43345;SDS011;28937;51.160;4.146;2023-03-17T12:04:35;7.97;;;1.88;;
43345;SDS011;28937;51.160;4.146;2023-03-17T12:09:46;7.25;;;2.10;;
43345;SDS011;28937;51.160;4.146;2023-03-17T12:12:23;4.25;;;2.10;;
43345;SDS011;28937;51.160;4.146;2023-03-17T12:14:54;6.75;;;1.88;;
43345;SDS011;28937;51.160;4.146;2023-03-17T12:20:06;2.78;;;1.75;;
43345;SDS011;28937;51.160;4.146;2023-03-17T12:27:53;6.40;;;2.23;;
43345;SDS011;28937;51.160;4.146;2023-03-17T12:33:35;9.25;;;2.20;;
43345;SDS011;28937;51.160;4.146;2023-03-17T12:36:13;4.38;;;1.98;;
43345;SDS011;28937;51.160;4.146;2023-03-17T12:54:44;5.20;;;2.25;;
43345;SDS011;28937;51.160;4.146;2023-03-17T12:57:20;9.57;;;2.75;;
43345;SDS011;28937;51.160;4.146;2023-03-17T12:59:58;5.78;;;2.50;;
43345;SDS011;28937;51.160;4.146;2023-03-17T13:02:36;4.95;;;2.22;;
43345;SDS011;28937;51.160;4.146;2023-03-17T13:05:07;5.38;;;2.15;;
43345;SDS011;28937;51.160;4.146;2023-03-17T13:13:12;4.93;;;2.42;;
43345;SDS011;28937;51.160;4.146;2023-03-17T13:16:05;7.97;;;2.38;;
43345;SDS011;28937;51.160;4.146;2023-03-17T13:18:49;5.75;;;2.58;;
43345;SDS011;28937;51.160;4.146;2023-03-17T13:21:18;4.95;;;2.47;;
43345;SDS011;28937;51.160;4.146;2023-03-17T13:26:21;4.70;;;2.13;;
43345;SDS011;28937;51.160;4.146;2023-03-17T13:37:28;7.15;;;2.53;;
43345;SDS011;28937;51.160;4.146;2023-03-17T13:40:06;4.13;;;2.22;;
43345;SDS011;28937;51.160;4.146;2023-03-17T13:42:59;5.82;;;2.72;;
43345;SDS011;28937;51.160;4.146;2023-03-17T13:45:39;6.65;;;2.22;;
43345;SDS011;28937;51.160;4.146;2023-03-17T13:48:24;6.05;;;1.65;;
43345;SDS011;28937;51.160;4.146;2023-03-17T13:53:40;5.25;;;2.42;;
43345;SDS011;28937;51.160;4.146;2023-03-17T13:56:10;4.57;;;1.83;;
43345;SDS011;28937;51.160;4.146;2023-03-17T13:58:52;5.25;;;2.22;;
43345;SDS011;28937;51.160;4.146;2023-03-17T14:01:50;5.75;;;2.42;;
43345;SDS011;28937;51.160;4.146;2023-03-17T14:04:23;5.00;;;2.33;;
43345;SDS011;28937;51.160;4.146;2023-03-17T14:06:53;5.60;;;2.20;;
43345;SDS011;28937;51.160;4.146;2023-03-17T14:09:40;7.13;;;2.35;;
43345;SDS011;28937;51.160;4.146;2023-03-17T14:12:11;7.43;;;2.03;;
43345;SDS011;28937;51.160;4.146;2023-03-17T14:15:32;5.97;;;1.92;;
43345;SDS011;28937;51.160;4.146;2023-03-17T14:18:17;6.38;;;2.15;;
43345;SDS011;28937;51.160;4.146;2023-03-17T14:20:51;8.73;;;2.45;;
43345;SDS011;28937;51.160;4.146;2023-03-17T14:23:21;5.90;;;1.95;;
43345;SDS011;28937;51.160;4.146;2023-03-17T14:25:47;5.72;;;2.10;;
43345;SDS011;28937;51.160;4.146;2023-03-17T14:28:18;4.72;;;2.22;;
43345;SDS011;28937;51.160;4.146;2023-03-17T14:30:50;6.13;;;1.90;;
43345;SDS011;28937;51.160;4.146;2023-03-17T14:33:25;3.42;;;1.80;;
43345;SDS011;28937;51.160;4.146;2023-03-17T14:35:55;7.40;;;1.88;;
43345;SDS011;28937;51.160;4.146;2023-03-17T14:38:24;4.53;;;1.80;;
43345;SDS011;28937;51.160;4.146;2023-03-17T14:41:02;3.95;;;1.58;;
43345;SDS011;28937;51.160;4.146;2023-03-17T14:43:50;5.35;;;1.67;;
43345;SDS011;28937;51.160;4.146;2023-03-17T14:46:20;5.63;;;1.95;;
43345;SDS011;28937;51.160;4.146;2023-03-17T14:48:57;6.05;;;1.85;;
43345;SDS011;28937;51.160;4.146;2023-03-17T14:51:35;5.53;;;2.25;;
43345;SDS011;28937;51.160;4.146;2023-03-17T14:54:13;4.57;;;1.83;;
43345;SDS011;28937;51.160;4.146;2023-03-17T14:56:40;3.00;;;1.63;;
43345;SDS011;28937;51.160;4.146;2023-03-17T14:59:19;6.97;;;1.88;;
43345;SDS011;28937;51.160;4.146;2023-03-17T15:01:55;7.28;;;2.08;;
43345;SDS011;28937;51.160;4.146;2023-03-17T15:04:23;6.57;;;2.17;;
43345;SDS011;28937;51.160;4.146;2023-03-17T15:06:53;8.82;;;2.15;;
43345;SDS011;28937;51.160;4.146;2023-03-17T15:09:25;6.90;;;1.80;;
43345;SDS011;28937;51.160;4.146;2023-03-17T15:14:46;5.93;;;1.88;;
43345;SDS011;28937;51.160;4.146;2023-03-17T15:17:27;6.82;;;2.10;;
43345;SDS011;28937;51.160;4.146;2023-03-17T15:19:56;6.93;;;2.10;;
43345;SDS011;28937;51.160;4.146;2023-03-17T15:22:30;4.38;;;1.80;;
43345;SDS011;28937;51.160;4.146;2023-03-17T15:27:41;4.47;;;1.70;;
43345;SDS011;28937;51.160;4.146;2023-03-17T15:30:08;5.90;;;2.05;;
43345;SDS011;28937;51.160;4.146;2023-03-17T15:32:34;6.72;;;2.38;;
43345;SDS011;28937;51.160;4.146;2023-03-17T15:35:00;10.57;;;2.25;;
43345;SDS011;28937;51.160;4.146;2023-03-17T15:37:30;3.90;;;1.80;;
43345;SDS011;28937;51.160;4.146;2023-03-17T15:39:57;4.53;;;1.77;;
43345;SDS011;28937;51.160;4.146;2023-03-17T15:42:25;5.90;;;2.50;;
43345;SDS011;28937;51.160;4.146;2023-03-17T15:44:52;5.60;;;1.98;;
43345;SDS011;28937;51.160;4.146;2023-03-17T15:47:21;7.32;;;2.10;;
43345;SDS011;28937;51.160;4.146;2023-03-17T15:49:49;7.30;;;2.15;;
43345;SDS011;28937;51.160;4.146;2023-03-17T15:54:41;9.65;;;2.97;;
43345;SDS011;28937;51.160;4.146;2023-03-17T15:57:09;7.18;;;2.85;;
43345;SDS011;28937;51.160;4.146;2023-03-17T15:59:36;7.75;;;3.40;;
43345;SDS011;28937;51.160;4.146;2023-03-17T16:02:02;8.15;;;2.80;;
43345;SDS011;28937;51.160;4.146;2023-03-17T16:04:37;6.32;;;2.00;;
43345;SDS011;28937;51.160;4.146;2023-03-17T16:07:05;9.02;;;2.55;;
43345;SDS011;28937;51.160;4.146;2023-03-17T16:09:36;6.90;;;1.88;;
43345;SDS011;28937;51.160;4.146;2023-03-17T16:12:02;7.68;;;3.00;;
43345;SDS011;28937;51.160;4.146;2023-03-17T16:14:28;6.82;;;2.80;;
43345;SDS011;28937;51.160;4.146;2023-03-17T16:16:53;7.72;;;2.33;;
43345;SDS011;28937;51.160;4.146;2023-03-17T16:19:20;7.97;;;2.30;;
43345;SDS011;28937;51.160;4.146;2023-03-17T16:21:47;9.15;;;2.72;;
43345;SDS011;28937;51.160;4.146;2023-03-17T16:24:17;9.48;;;2.50;;
43345;SDS011;28937;51.160;4.146;2023-03-17T16:26:45;9.25;;;2.58;;
43345;SDS011;28937;51.160;4.146;2023-03-17T16:29:12;5.63;;;2.55;;
43345;SDS011;28937;51.160;4.146;2023-03-17T16:31:38;13.23;;;2.72;;
43345;SDS011;28937;51.160;4.146;2023-03-17T16:34:25;6.15;;;2.40;;
43345;SDS011;28937;51.160;4.146;2023-03-17T16:36:50;10.07;;;2.88;;
43345;SDS011;28937;51.160;4.146;2023-03-17T16:39:19;8.48;;;2.80;;
43345;SDS011;28937;51.160;4.146;2023-03-17T16:41:46;7.10;;;2.63;;
43345;SDS011;28937;51.160;4.146;2023-03-17T16:44:17;5.85;;;2.70;;
43345;SDS011;28937;51.160;4.146;2023-03-17T16:46:45;5.05;;;2.78;;